sensor_id;sensor_type;location;lat;lon;timestamp;pressure;altitude;pressure_sealevel;temperature;humidity
61618;BME280;47518;51.776;9.370;2022-12-29T00:01:24;99132.56;;;8.36;86.40
61618;BME280;47518;51.776;9.370;2022-12-29T00:03:50;99133.22;;;8.38;85.66
61618;BME280;47518;51.776;9.370;2022-12-29T00:06:15;99135.13;;;8.44;86.23
61618;BME280;47518;51.776;9.370;2022-12-29T00:08:40;99139.59;;;8.52;85.60
61618;BME280;47518;51.776;9.370;2022-12-29T00:11:11;99134.19;;;8.52;86.05
61618;BME280;47518;51.776;9.370;2022-12-29T00:13:36;99136.06;;;8.51;86.06
61618;BME280;47518;51.776;9.370;2022-12-29T00:16:22;99130.25;;;8.54;84.74
61618;BME280;47518;51.776;9.370;2022-12-29T00:18:48;99143.25;;;8.59;85.14
61618;BME280;47518;51.776;9.370;2022-12-29T00:21:15;99131.09;;;8.55;84.94
61618;BME280;47518;51.776;9.370;2022-12-29T00:24:01;99140.88;;;8.56;85.02
61618;BME280;47518;51.776;9.370;2022-12-29T00:26:49;99151.38;;;8.59;87.15
61618;BME280;47518;51.776;9.370;2022-12-29T00:29:34;99152.63;;;8.27;89.90
61618;BME280;47518;51.776;9.370;2022-12-29T00:32:19;99131.84;;;8.12;91.17
61618;BME280;47518;51.776;9.370;2022-12-29T00:35:08;99126.78;;;8.09;93.23
61618;BME280;47518;51.776;9.370;2022-12-29T00:37:40;99136.78;;;8.09;93.91
61618;BME280;47518;51.776;9.370;2022-12-29T00:40:26;99147.25;;;8.12;93.29
61618;BME280;47518;51.776;9.370;2022-12-29T00:43:12;99143.06;;;7.95;95.60
61618;BME280;47518;51.776;9.370;2022-12-29T00:45:57;99144.75;;;7.81;98.12
61618;BME280;47518;51.776;9.370;2022-12-29T00:48:22;99100.44;;;7.82;98.11
61618;BME280;47518;51.776;9.370;2022-12-29T00:51:08;99127.69;;;7.80;97.74
61618;BME280;47518;51.776;9.370;2022-12-29T00:53:33;99125.22;;;7.85;97.78
61618;BME280;47518;51.776;9.370;2022-12-29T00:55:59;99117.22;;;7.92;97.76
61618;BME280;47518;51.776;9.370;2022-12-29T00:58:27;99107.03;;;7.94;97.66
61618;BME280;47518;51.776;9.370;2022-12-29T01:01:01;99108.81;;;8.02;97.26
61618;BME280;47518;51.776;9.370;2022-12-29T01:03:27;99096.13;;;8.02;96.79
61618;BME280;47518;51.776;9.370;2022-12-29T01:05:52;99095.53;;;8.07;96.11
61618;BME280;47518;51.776;9.370;2022-12-29T01:08:17;99085.94;;;8.04;96.70
61618;BME280;47518;51.776;9.370;2022-12-29T01:10:43;99086.47;;;8.14;96.32
61618;BME280;47518;51.776;9.370;2022-12-29T01:13:08;99090.25;;;8.20;95.88
61618;BME280;47518;51.776;9.370;2022-12-29T01:15:33;99109.50;;;8.25;96.03
61618;BME280;47518;51.776;9.370;2022-12-29T01:17:58;99092.41;;;8.39;94.64
61618;BME280;47518;51.776;9.370;2022-12-29T01:20:24;99085.00;;;8.48;93.32
61618;BME280;47518;51.776;9.370;2022-12-29T01:22:49;99085.81;;;8.48;93.61
61618;BME280;47518;51.776;9.370;2022-12-29T01:25:15;99070.94;;;8.59;92.86
61618;BME280;47518;51.776;9.370;2022-12-29T01:27:40;99074.41;;;8.74;91.99
61618;BME280;47518;51.776;9.370;2022-12-29T01:30:06;99079.69;;;8.83;91.06
61618;BME280;47518;51.776;9.370;2022-12-29T01:32:31;99077.84;;;8.90;90.57
61618;BME280;47518;51.776;9.370;2022-12-29T01:34:56;99060.06;;;8.81;91.05
61618;BME280;47518;51.776;9.370;2022-12-29T01:37:22;99070.63;;;8.97;90.24
61618;BME280;47518;51.776;9.370;2022-12-29T01:39:47;99057.72;;;8.99;89.41
61618;BME280;47518;51.776;9.370;2022-12-29T01:42:18;99051.41;;;8.92;90.37
61618;BME280;47518;51.776;9.370;2022-12-29T01:44:54;99039.78;;;8.98;89.76
61618;BME280;47518;51.776;9.370;2022-12-29T01:47:44;99038.88;;;8.91;90.59
61618;BME280;47518;51.776;9.370;2022-12-29T01:53:44;99026.31;;;9.11;88.11
61618;BME280;47518;51.776;9.370;2022-12-29T01:56:12;99027.09;;;9.05;90.35
61618;BME280;47518;51.776;9.370;2022-12-29T01:58:42;99021.56;;;9.20;89.17
61618;BME280;47518;51.776;9.370;2022-12-29T02:01:10;99009.00;;;9.12;88.31
61618;BME280;47518;51.776;9.370;2022-12-29T02:03:35;99006.34;;;9.25;87.93
61618;BME280;47518;51.776;9.370;2022-12-29T02:06:08;99003.47;;;9.27;88.11
61618;BME280;47518;51.776;9.370;2022-12-29T02:08:36;99003.66;;;9.25;88.30
61618;BME280;47518;51.776;9.370;2022-12-29T02:11:02;98994.28;;;9.28;88.10
61618;BME280;47518;51.776;9.370;2022-12-29T02:13:28;98993.84;;;9.24;88.55
61618;BME280;47518;51.776;9.370;2022-12-29T02:16:06;98994.09;;;9.36;88.02
61618;BME280;47518;51.776;9.370;2022-12-29T02:18:51;99005.72;;;9.23;88.91
61618;BME280;47518;51.776;9.370;2022-12-29T02:21:49;99008.28;;;9.31;87.57
61618;BME280;47518;51.776;9.370;2022-12-29T02:37:26;99003.66;;;9.67;86.26
61618;BME280;47518;51.776;9.370;2022-12-29T02:45:36;99001.78;;;9.67;86.51
61618;BME280;47518;51.776;9.370;2022-12-29T03:14:32;98960.16;;;9.47;90.63
61618;BME280;47518;51.776;9.370;2022-12-29T03:17:27;98957.44;;;9.47;90.71
61618;BME280;47518;51.776;9.370;2022-12-29T03:20:03;98973.75;;;9.53;90.51
61618;BME280;47518;51.776;9.370;2022-12-29T03:22:32;98977.03;;;9.42;90.71
61618;BME280;47518;51.776;9.370;2022-12-29T03:25:17;98960.78;;;9.42;90.48
61618;BME280;47518;51.776;9.370;2022-12-29T03:27:49;98946.13;;;9.36;90.79
61618;BME280;47518;51.776;9.370;2022-12-29T03:30:15;98959.53;;;9.45;91.03
61618;BME280;47518;51.776;9.370;2022-12-29T03:32:48;98954.50;;;9.42;90.88
61618;BME280;47518;51.776;9.370;2022-12-29T03:35:16;98959.09;;;9.48;91.23
61618;BME280;47518;51.776;9.370;2022-12-29T03:37:53;98936.44;;;9.62;89.70
61618;BME280;47518;51.776;9.370;2022-12-29T03:40:22;98929.34;;;9.68;89.21
61618;BME280;47518;51.776;9.370;2022-12-29T03:42:48;98955.69;;;9.74;88.67
61618;BME280;47518;51.776;9.370;2022-12-29T03:45:14;98952.97;;;9.80;88.70
61618;BME280;47518;51.776;9.370;2022-12-29T03:47:40;98956.75;;;9.86;88.08
61618;BME280;47518;51.776;9.370;2022-12-29T03:50:05;98943.56;;;9.76;88.54
61618;BME280;47518;51.776;9.370;2022-12-29T03:52:31;98943.19;;;9.99;86.45
61618;BME280;47518;51.776;9.370;2022-12-29T03:54:56;98931.06;;;9.88;86.55
61618;BME280;47518;51.776;9.370;2022-12-29T03:57:22;98932.94;;;9.94;86.83
61618;BME280;47518;51.776;9.370;2022-12-29T03:59:47;98940.06;;;9.96;86.83
61618;BME280;47518;51.776;9.370;2022-12-29T04:02:12;98949.22;;;9.94;86.25
61618;BME280;47518;51.776;9.370;2022-12-29T04:04:38;98953.66;;;10.09;85.72
61618;BME280;47518;51.776;9.370;2022-12-29T04:07:03;98947.63;;;10.20;84.81
61618;BME280;47518;51.776;9.370;2022-12-29T04:09:28;98944.06;;;10.13;85.50
61618;BME280;47518;51.776;9.370;2022-12-29T04:11:55;98936.75;;;10.13;84.73
61618;BME280;47518;51.776;9.370;2022-12-29T04:14:20;98935.94;;;10.19;83.45
61618;BME280;47518;51.776;9.370;2022-12-29T04:16:45;98927.97;;;10.11;84.70
61618;BME280;47518;51.776;9.370;2022-12-29T04:19:10;98929.63;;;10.12;84.50
61618;BME280;47518;51.776;9.370;2022-12-29T04:21:36;98930.06;;;10.16;84.42
61618;BME280;47518;51.776;9.370;2022-12-29T04:24:01;98934.47;;;10.30;82.15
61618;BME280;47518;51.776;9.370;2022-12-29T04:26:27;98931.97;;;10.29;83.22
61618;BME280;47518;51.776;9.370;2022-12-29T04:28:52;98936.56;;;10.28;82.79
61618;BME280;47518;51.776;9.370;2022-12-29T04:31:17;98927.19;;;10.31;82.43
61618;BME280;47518;51.776;9.370;2022-12-29T04:33:43;98919.25;;;10.42;81.80
61618;BME280;47518;51.776;9.370;2022-12-29T04:36:08;98926.56;;;10.42;81.61
61618;BME280;47518;51.776;9.370;2022-12-29T04:38:33;98917.16;;;10.44;81.88
61618;BME280;47518;51.776;9.370;2022-12-29T04:41:00;98914.00;;;10.34;82.24
61618;BME280;47518;51.776;9.370;2022-12-29T04:43:26;98919.03;;;10.37;82.17
61618;BME280;47518;51.776;9.370;2022-12-29T04:45:51;98920.91;;;10.37;81.78
61618;BME280;47518;51.776;9.370;2022-12-29T04:48:17;98920.28;;;10.48;81.52
61618;BME280;47518;51.776;9.370;2022-12-29T04:50:43;98914.00;;;10.47;81.12
61618;BME280;47518;51.776;9.370;2022-12-29T04:53:08;98917.53;;;10.61;80.12
61618;BME280;47518;51.776;9.370;2022-12-29T04:55:33;98920.91;;;10.57;80.23
61618;BME280;47518;51.776;9.370;2022-12-29T04:57:59;98929.25;;;10.48;81.43
61618;BME280;47518;51.776;9.370;2022-12-29T05:00:24;98929.25;;;10.48;81.78
61618;BME280;47518;51.776;9.370;2022-12-29T05:02:50;98908.75;;;10.52;81.85
61618;BME280;47518;51.776;9.370;2022-12-29T05:05:15;98905.00;;;10.67;82.15
61618;BME280;47518;51.776;9.370;2022-12-29T05:07:40;98900.22;;;10.42;84.52
61618;BME280;47518;51.776;9.370;2022-12-29T05:10:06;98902.94;;;10.42;84.34
61618;BME280;47518;51.776;9.370;2022-12-29T05:12:33;98916.31;;;10.37;84.19
61618;BME280;47518;51.776;9.370;2022-12-29T05:39:16;98895.00;;;10.34;86.78
61618;BME280;47518;51.776;9.370;2022-12-29T05:41:42;98902.75;;;10.31;86.91
61618;BME280;47518;51.776;9.370;2022-12-29T05:44:07;98896.06;;;10.33;87.07
61618;BME280;47518;51.776;9.370;2022-12-29T05:46:32;98930.09;;;10.29;86.76
61618;BME280;47518;51.776;9.370;2022-12-29T05:48:57;98918.56;;;10.14;88.29
61618;BME280;47518;51.776;9.370;2022-12-29T05:51:23;98910.66;;;10.26;87.15
61618;BME280;47518;51.776;9.370;2022-12-29T05:53:49;98905.41;;;10.11;87.93
61618;BME280;47518;51.776;9.370;2022-12-29T05:56:14;98896.03;;;10.20;88.13
61618;BME280;47518;51.776;9.370;2022-12-29T05:58:39;98891.41;;;10.14;87.98
61618;BME280;47518;51.776;9.370;2022-12-29T06:01:05;98901.22;;;10.15;87.94
61618;BME280;47518;51.776;9.370;2022-12-29T06:03:30;98888.31;;;10.23;87.28
61618;BME280;47518;51.776;9.370;2022-12-29T06:05:55;98889.94;;;10.11;88.27
61618;BME280;47518;51.776;9.370;2022-12-29T06:08:21;98886.41;;;10.11;88.01
61618;BME280;47518;51.776;9.370;2022-12-29T06:10:46;98895.38;;;10.11;88.74
61618;BME280;47518;51.776;9.370;2022-12-29T06:13:11;98888.50;;;10.09;87.31
61618;BME280;47518;51.776;9.370;2022-12-29T06:15:37;98894.75;;;10.16;87.42
61618;BME280;47518;51.776;9.370;2022-12-29T06:18:03;98888.91;;;10.19;87.20
61618;BME280;47518;51.776;9.370;2022-12-29T06:20:28;98878.66;;;10.14;87.31
61618;BME280;47518;51.776;9.370;2022-12-29T06:22:54;98884.09;;;10.14;87.01
61618;BME280;47518;51.776;9.370;2022-12-29T06:25:19;98868.47;;;10.23;86.43
61618;BME280;47518;51.776;9.370;2022-12-29T06:27:44;98875.97;;;10.21;87.08
61618;BME280;47518;51.776;9.370;2022-12-29T06:30:10;98865.75;;;10.23;86.56
61618;BME280;47518;51.776;9.370;2022-12-29T06:32:36;98870.97;;;10.25;85.36
61618;BME280;47518;51.776;9.370;2022-12-29T06:35:02;98867.63;;;10.29;86.60
61618;BME280;47518;51.776;9.370;2022-12-29T06:37:28;98883.72;;;10.31;85.36
61618;BME280;47518;51.776;9.370;2022-12-29T06:39:53;98884.13;;;10.34;85.13
61618;BME280;47518;51.776;9.370;2022-12-29T06:42:19;98898.34;;;10.36;84.94
61618;BME280;47518;51.776;9.370;2022-12-29T06:44:44;98903.34;;;10.39;84.75
61618;BME280;47518;51.776;9.370;2022-12-29T06:47:10;98903.75;;;10.56;84.04
61618;BME280;47518;51.776;9.370;2022-12-29T06:49:35;98912.75;;;10.50;84.19
61618;BME280;47518;51.776;9.370;2022-12-29T06:52:01;98902.94;;;10.56;83.44
61618;BME280;47518;51.776;9.370;2022-12-29T06:54:29;98895.63;;;10.56;84.18
61618;BME280;47518;51.776;9.370;2022-12-29T06:56:54;98903.13;;;10.61;83.79
61618;BME280;47518;51.776;9.370;2022-12-29T06:59:20;98901.25;;;10.48;84.04
61618;BME280;47518;51.776;9.370;2022-12-29T07:01:45;98890.16;;;10.63;83.40
61618;BME280;47518;51.776;9.370;2022-12-29T07:04:10;98894.56;;;10.50;83.43
61618;BME280;47518;51.776;9.370;2022-12-29T07:06:36;98899.81;;;10.45;84.20
61618;BME280;47518;51.776;9.370;2022-12-29T07:09:01;98904.59;;;10.50;84.09
61618;BME280;47518;51.776;9.370;2022-12-29T07:11:27;98906.69;;;10.55;83.04
61618;BME280;47518;51.776;9.370;2022-12-29T07:13:52;98900.63;;;10.52;83.40
61618;BME280;47518;51.776;9.370;2022-12-29T07:16:18;98907.94;;;10.45;83.98
61618;BME280;47518;51.776;9.370;2022-12-29T07:18:43;98912.34;;;10.46;84.05
61618;BME280;47518;51.776;9.370;2022-12-29T07:21:09;98909.41;;;10.48;84.03
61618;BME280;47518;51.776;9.370;2022-12-29T07:23:35;98910.66;;;10.52;83.02
61618;BME280;47518;51.776;9.370;2022-12-29T07:26:05;98920.91;;;10.50;83.94
61618;BME280;47518;51.776;9.370;2022-12-29T07:28:31;98919.44;;;10.54;83.53
61618;BME280;47518;51.776;9.370;2022-12-29T07:30:58;98927.19;;;10.44;83.62
61618;BME280;47518;51.776;9.370;2022-12-29T07:33:23;98930.31;;;10.47;83.89
61618;BME280;47518;51.776;9.370;2022-12-29T07:35:49;98930.50;;;10.39;84.35
61618;BME280;47518;51.776;9.370;2022-12-29T07:38:14;98919.22;;;10.36;84.53
61618;BME280;47518;51.776;9.370;2022-12-29T07:40:40;98929.28;;;10.35;84.16
61618;BME280;47518;51.776;9.370;2022-12-29T07:43:05;98921.31;;;10.40;83.79
61618;BME280;47518;51.776;9.370;2022-12-29T07:45:31;98933.84;;;10.41;84.58
61618;BME280;47518;51.776;9.370;2022-12-29T07:47:56;98950.16;;;10.41;84.95
61618;BME280;47518;51.776;9.370;2022-12-29T07:50:21;98943.06;;;10.34;84.23
61618;BME280;47518;51.776;9.370;2022-12-29T07:52:47;98938.44;;;10.41;85.11
61618;BME280;47518;51.776;9.370;2022-12-29T07:55:13;98947.44;;;10.28;85.89
61618;BME280;47518;51.776;9.370;2022-12-29T07:57:38;98930.25;;;10.14;86.49
61618;BME280;47518;51.776;9.370;2022-12-29T08:00:04;98958.25;;;10.08;88.65
61618;BME280;47518;51.776;9.370;2022-12-29T08:02:30;98961.38;;;10.05;88.90
61618;BME280;47518;51.776;9.370;2022-12-29T08:04:55;98938.41;;;10.01;89.04
61618;BME280;47518;51.776;9.370;2022-12-29T08:07:20;98971.41;;;10.05;88.61
61618;BME280;47518;51.776;9.370;2022-12-29T08:09:46;98961.38;;;10.12;88.24
61618;BME280;47518;51.776;9.370;2022-12-29T08:12:11;98957.84;;;10.11;87.44
61618;BME280;47518;51.776;9.370;2022-12-29T08:14:36;98985.63;;;10.13;87.98
61618;BME280;47518;51.776;9.370;2022-12-29T08:17:02;98973.13;;;10.19;87.36
61618;BME280;47518;51.776;9.370;2022-12-29T08:19:27;98973.75;;;10.21;86.70
61618;BME280;47518;51.776;9.370;2022-12-29T08:21:53;98982.28;;;10.18;87.65
61618;BME280;47518;51.776;9.370;2022-12-29T08:24:18;98971.91;;;10.35;85.52
61618;BME280;47518;51.776;9.370;2022-12-29T08:26:44;98972.31;;;10.25;87.12
61618;BME280;47518;51.776;9.370;2022-12-29T08:29:09;98986.09;;;10.23;87.20
61618;BME280;47518;51.776;9.370;2022-12-29T08:31:35;98978.94;;;10.16;87.22
61618;BME280;47518;51.776;9.370;2022-12-29T08:34:00;98985.81;;;10.05;88.60
61618;BME280;47518;51.776;9.370;2022-12-29T08:36:28;98983.75;;;10.14;88.07
61618;BME280;47518;51.776;9.370;2022-12-29T08:38:53;98991.03;;;10.00;89.03
61618;BME280;47518;51.776;9.370;2022-12-29T08:41:21;98997.91;;;9.96;89.47
61618;BME280;47518;51.776;9.370;2022-12-29T08:43:48;98994.34;;;9.89;90.35
61618;BME280;47518;51.776;9.370;2022-12-29T08:46:14;98994.31;;;9.82;91.55
61618;BME280;47518;51.776;9.370;2022-12-29T08:48:39;99010.59;;;9.82;92.29
61618;BME280;47518;51.776;9.370;2022-12-29T08:51:04;99008.88;;;9.68;93.32
61618;BME280;47518;51.776;9.370;2022-12-29T08:53:30;99008.47;;;9.71;92.65
61618;BME280;47518;51.776;9.370;2022-12-29T08:55:57;98999.69;;;9.69;93.38
61618;BME280;47518;51.776;9.370;2022-12-29T08:58:24;99003.84;;;9.65;92.74
61618;BME280;47518;51.776;9.370;2022-12-29T09:00:52;99010.13;;;9.65;91.47
61618;BME280;47518;51.776;9.370;2022-12-29T09:03:17;99000.50;;;9.63;90.86
61618;BME280;47518;51.776;9.370;2022-12-29T09:05:48;99005.09;;;9.62;92.04
61618;BME280;47518;51.776;9.370;2022-12-29T09:08:14;99022.84;;;9.65;90.92
61618;BME280;47518;51.776;9.370;2022-12-29T09:10:40;99017.63;;;9.63;89.56
61618;BME280;47518;51.776;9.370;2022-12-29T09:13:05;99011.94;;;9.52;90.46
61618;BME280;47518;51.776;9.370;2022-12-29T09:15:30;99027.53;;;9.43;93.40
61618;BME280;47518;51.776;9.370;2022-12-29T09:17:56;99014.19;;;9.42;92.79
61618;BME280;47518;51.776;9.370;2022-12-29T09:20:21;99012.66;;;9.32;94.42
61618;BME280;47518;51.776;9.370;2022-12-29T09:22:47;99009.16;;;9.39;91.92
61618;BME280;47518;51.776;9.370;2022-12-29T09:25:13;99010.28;;;9.51;88.59
61618;BME280;47518;51.776;9.370;2022-12-29T09:27:38;99021.13;;;9.51;89.91
61618;BME280;47518;51.776;9.370;2022-12-29T09:30:05;99035.31;;;9.53;90.07
61618;BME280;47518;51.776;9.370;2022-12-29T09:32:32;99034.28;;;9.54;90.44
61618;BME280;47518;51.776;9.370;2022-12-29T09:34:57;99021.97;;;9.58;89.52
61618;BME280;47518;51.776;9.370;2022-12-29T09:37:23;99028.94;;;9.74;86.64
61618;BME280;47518;51.776;9.370;2022-12-29T09:39:48;99025.41;;;9.73;86.94
61618;BME280;47518;51.776;9.370;2022-12-29T09:55:39;99048.78;;;11.48;78.01
61618;BME280;47518;51.776;9.370;2022-12-29T09:58:13;99057.31;;;11.64;77.39
61618;BME280;47518;51.776;9.370;2022-12-29T10:00:49;99046.06;;;11.34;76.07
61618;BME280;47518;51.776;9.370;2022-12-29T10:03:20;99047.59;;;10.91;78.92
61618;BME280;47518;51.776;9.370;2022-12-29T10:05:50;99040.47;;;10.70;78.15
61618;BME280;47518;51.776;9.370;2022-12-29T10:08:31;99044.63;;;10.46;80.21
61618;BME280;47518;51.776;9.370;2022-12-29T10:11:09;99042.53;;;10.48;78.93
61618;BME280;47518;51.776;9.370;2022-12-29T10:14:06;99037.09;;;10.41;78.64
61618;BME280;47518;51.776;9.370;2022-12-29T10:32:40;99052.13;;;10.37;78.49
61618;BME280;47518;51.776;9.370;2022-12-29T10:35:29;99038.34;;;10.32;78.79
61618;BME280;47518;51.776;9.370;2022-12-29T10:38:05;99042.75;;;10.46;79.89
61618;BME280;47518;51.776;9.370;2022-12-29T10:56:46;99016.44;;;10.93;72.59
61618;BME280;47518;51.776;9.370;2022-12-29T10:59:30;99013.31;;;10.90;71.84
61618;BME280;47518;51.776;9.370;2022-12-29T11:15:18;99040.47;;;10.70;71.54
61618;BME280;47518;51.776;9.370;2022-12-29T11:17:48;99059.06;;;10.46;75.65
61618;BME280;47518;51.776;9.370;2022-12-29T11:20:36;99068.09;;;10.06;79.40
61618;BME280;47518;51.776;9.370;2022-12-29T11:23:20;99060.94;;;9.85;81.75
61618;BME280;47518;51.776;9.370;2022-12-29T11:26:05;99064.81;;;9.62;83.10
61618;BME280;47518;51.776;9.370;2022-12-29T11:28:30;99071.00;;;9.56;83.12
61618;BME280;47518;51.776;9.370;2022-12-29T11:31:02;99067.03;;;9.52;82.79
61618;BME280;47518;51.776;9.370;2022-12-29T11:33:29;99074.81;;;9.62;81.80
61618;BME280;47518;51.776;9.370;2022-12-29T11:35:58;99071.69;;;9.65;80.92
61618;BME280;47518;51.776;9.370;2022-12-29T11:38:34;99065.44;;;9.71;81.00
61618;BME280;47518;51.776;9.370;2022-12-29T11:41:01;99062.38;;;9.81;79.54
61618;BME280;47518;51.776;9.370;2022-12-29T11:43:32;99055.31;;;9.93;78.31
61618;BME280;47518;51.776;9.370;2022-12-29T11:45:59;99059.38;;;10.10;74.28
61618;BME280;47518;51.776;9.370;2022-12-29T11:48:29;99054.00;;;10.30;73.53
61618;BME280;47518;51.776;9.370;2022-12-29T11:50:57;99053.84;;;10.45;71.64
61618;BME280;47518;51.776;9.370;2022-12-29T11:56:14;99050.28;;;10.64;70.53
61618;BME280;47518;51.776;9.370;2022-12-29T11:58:40;99059.50;;;10.70;69.55
61618;BME280;47518;51.776;9.370;2022-12-29T12:14:38;99060.97;;;11.05;64.29
61618;BME280;47518;51.776;9.370;2022-12-29T12:17:14;99064.72;;;11.18;63.50
61618;BME280;47518;51.776;9.370;2022-12-29T12:19:56;99052.16;;;11.10;63.22
61618;BME280;47518;51.776;9.370;2022-12-29T12:25:29;99057.81;;;11.08;62.05
61618;BME280;47518;51.776;9.370;2022-12-29T12:30:50;99065.38;;;11.13;62.78
61618;BME280;47518;51.776;9.370;2022-12-29T12:33:38;99078.75;;;11.15;62.09
61618;BME280;47518;51.776;9.370;2022-12-29T12:36:23;99075.81;;;11.09;62.01
61618;BME280;47518;51.776;9.370;2022-12-29T12:44:45;99076.88;;;11.02;62.63
61618;BME280;47518;51.776;9.370;2022-12-29T13:00:21;99090.91;;;10.92;63.89
61618;BME280;47518;51.776;9.370;2022-12-29T13:03:28;99095.50;;;10.92;64.89
61618;BME280;47518;51.776;9.370;2022-12-29T13:09:13;99096.97;;;11.01;63.80
61618;BME280;47518;51.776;9.370;2022-12-29T13:11:57;99100.09;;;10.91;62.95
61618;BME280;47518;51.776;9.370;2022-12-29T13:27:38;99123.94;;;10.89;63.57
61618;BME280;47518;51.776;9.370;2022-12-29T13:30:12;99116.59;;;10.83;63.74
61618;BME280;47518;51.776;9.370;2022-12-29T13:32:51;99134.16;;;10.74;64.81
61618;BME280;47518;51.776;9.370;2022-12-29T13:35:44;99145.88;;;10.81;64.08
61618;BME280;47518;51.776;9.370;2022-12-29T13:38:25;99141.50;;;10.80;64.93
61618;BME280;47518;51.776;9.370;2022-12-29T13:40:58;99146.47;;;10.76;63.95
61618;BME280;47518;51.776;9.370;2022-12-29T13:43:25;99160.97;;;10.97;64.23
61618;BME280;47518;51.776;9.370;2022-12-29T13:45:59;99156.75;;;10.81;63.97
61618;BME280;47518;51.776;9.370;2022-12-29T13:48:35;99161.78;;;10.77;64.24
61618;BME280;47518;51.776;9.370;2022-12-29T13:51:02;99169.03;;;10.64;65.29
61618;BME280;47518;51.776;9.370;2022-12-29T14:06:36;99178.25;;;10.63;65.26
61618;BME280;47518;51.776;9.370;2022-12-29T14:09:28;99192.47;;;10.65;65.62
61618;BME280;47518;51.776;9.370;2022-12-29T14:11:57;99191.19;;;10.61;68.27
61618;BME280;47518;51.776;9.370;2022-12-29T14:14:25;99204.50;;;10.36;69.28
61618;BME280;47518;51.776;9.370;2022-12-29T14:16:52;99213.41;;;9.95;73.12
61618;BME280;47518;51.776;9.370;2022-12-29T14:19:22;99210.63;;;9.82;72.55
61618;BME280;47518;51.776;9.370;2022-12-29T14:21:52;99212.81;;;9.65;74.30
61618;BME280;47518;51.776;9.370;2022-12-29T14:37:41;99232.38;;;9.88;72.98
61618;BME280;47518;51.776;9.370;2022-12-29T14:40:27;99235.53;;;9.92;74.31
61618;BME280;47518;51.776;9.370;2022-12-29T14:42:55;99243.03;;;9.90;75.31
61618;BME280;47518;51.776;9.370;2022-12-29T14:45:30;99248.50;;;9.41;81.15
61618;BME280;47518;51.776;9.370;2022-12-29T14:47:58;99240.13;;;8.93;83.62
61618;BME280;47518;51.776;9.370;2022-12-29T14:50:39;99256.13;;;8.73;87.11
61618;BME280;47518;51.776;9.370;2022-12-29T14:53:10;99262.06;;;8.62;89.26
61618;BME280;47518;51.776;9.370;2022-12-29T14:55:56;99284.00;;;8.52;91.75
61618;BME280;47518;51.776;9.370;2022-12-29T15:04:17;99279.44;;;8.23;94.48
61618;BME280;47518;51.776;9.370;2022-12-29T15:06:43;99279.25;;;8.25;94.00
61618;BME280;47518;51.776;9.370;2022-12-29T15:09:33;99268.47;;;8.31;92.58
61618;BME280;47518;51.776;9.370;2022-12-29T15:12:07;99282.22;;;8.30;92.92
61618;BME280;47518;51.776;9.370;2022-12-29T15:14:48;99276.81;;;8.44;90.92
61618;BME280;47518;51.776;9.370;2022-12-29T15:17:31;99279.25;;;8.69;86.59
61618;BME280;47518;51.776;9.370;2022-12-29T15:19:59;99273.25;;;8.73;86.69
61618;BME280;47518;51.776;9.370;2022-12-29T15:22:25;99265.22;;;8.65;87.05
61618;BME280;47518;51.776;9.370;2022-12-29T15:24:52;99276.53;;;8.69;85.99
61618;BME280;47518;51.776;9.370;2022-12-29T15:27:22;99275.94;;;8.73;85.31
61618;BME280;47518;51.776;9.370;2022-12-29T15:29:55;99272.34;;;8.88;82.52
61618;BME280;47518;51.776;9.370;2022-12-29T15:32:24;99269.19;;;8.84;83.08
61618;BME280;47518;51.776;9.370;2022-12-29T15:34:52;99266.09;;;8.87;81.40
61618;BME280;47518;51.776;9.370;2022-12-29T15:50:29;99286.19;;;9.14;79.11
61618;BME280;47518;51.776;9.370;2022-12-29T15:52:55;99292.41;;;9.08;79.58
61618;BME280;47518;51.776;9.370;2022-12-29T15:55:28;99287.22;;;9.13;79.71
61618;BME280;47518;51.776;9.370;2022-12-29T15:57:57;99295.13;;;9.08;79.69
61618;BME280;47518;51.776;9.370;2022-12-29T16:00:26;99279.78;;;9.15;80.85
61618;BME280;47518;51.776;9.370;2022-12-29T16:02:54;99289.50;;;9.10;80.78
61618;BME280;47518;51.776;9.370;2022-12-29T16:05:20;99280.59;;;9.16;81.56
61618;BME280;47518;51.776;9.370;2022-12-29T16:07:56;99289.69;;;9.08;80.64
61618;BME280;47518;51.776;9.370;2022-12-29T16:10:26;99294.81;;;9.39;78.24
61618;BME280;47518;51.776;9.370;2022-12-29T16:13:01;99286.97;;;9.08;80.06
61618;BME280;47518;51.776;9.370;2022-12-29T16:15:27;99292.63;;;9.28;77.38
61618;BME280;47518;51.776;9.370;2022-12-29T16:17:54;99295.59;;;9.33;77.54
61618;BME280;47518;51.776;9.370;2022-12-29T16:20:25;99296.88;;;9.16;78.23
61618;BME280;47518;51.776;9.370;2022-12-29T16:22:57;99304.22;;;9.22;77.07
61618;BME280;47518;51.776;9.370;2022-12-29T16:25:25;99299.25;;;9.25;76.38
61618;BME280;47518;51.776;9.370;2022-12-29T16:27:54;99307.03;;;9.28;76.68
61618;BME280;47518;51.776;9.370;2022-12-29T16:30:23;99300.09;;;9.47;75.96
61618;BME280;47518;51.776;9.370;2022-12-29T16:32:51;99299.53;;;9.30;76.98
61618;BME280;47518;51.776;9.370;2022-12-29T16:35:21;99299.72;;;9.29;75.13
61618;BME280;47518;51.776;9.370;2022-12-29T16:37:49;99295.66;;;9.40;75.81
61618;BME280;47518;51.776;9.370;2022-12-29T16:40:31;99304.66;;;9.25;76.84
61618;BME280;47518;51.776;9.370;2022-12-29T16:42:59;99298.06;;;9.13;77.76
61618;BME280;47518;51.776;9.370;2022-12-29T17:01:37;99324.34;;;9.13;78.87
61618;BME280;47518;51.776;9.370;2022-12-29T17:04:06;99325.53;;;9.03;80.18
61618;BME280;47518;51.776;9.370;2022-12-29T17:06:32;99322.63;;;9.05;78.84
61618;BME280;47518;51.776;9.370;2022-12-29T17:08:58;99321.88;;;8.96;77.58
61618;BME280;47518;51.776;9.370;2022-12-29T17:24:29;99328.59;;;9.00;78.13
61618;BME280;47518;51.776;9.370;2022-12-29T17:26:56;99340.09;;;9.02;76.75
61618;BME280;47518;51.776;9.370;2022-12-29T17:29:31;99337.84;;;9.06;76.08
61618;BME280;47518;51.776;9.370;2022-12-29T17:31:58;99336.72;;;9.00;77.34
61618;BME280;47518;51.776;9.370;2022-12-29T17:34:24;99336.38;;;9.03;76.86
61618;BME280;47518;51.776;9.370;2022-12-29T17:36:50;99332.34;;;8.99;78.05
61618;BME280;47518;51.776;9.370;2022-12-29T17:39:15;99333.31;;;8.92;78.20
61618;BME280;47518;51.776;9.370;2022-12-29T17:41:40;99330.41;;;8.93;77.63